sensor_id;sensor_type;location;lat;lon;timestamp;pressure;altitude;pressure_sealevel;temperature;humidity
6851;BME280;3464;42.728;23.296;2023-04-25T00:00:15;94492.64;;;18.09;73.93
6851;BME280;3464;42.728;23.296;2023-04-25T00:02:42;94482.78;;;17.73;74.71
6851;BME280;3464;42.728;23.296;2023-04-25T00:05:09;94477.42;;;17.81;74.89
6851;BME280;3464;42.728;23.296;2023-04-25T00:07:35;94471.02;;;17.69;75.05
6851;BME280;3464;42.728;23.296;2023-04-25T00:10:04;94469.92;;;17.89;75.36
6851;BME280;3464;42.728;23.296;2023-04-25T00:12:31;94462.63;;;17.79;75.66
6851;BME280;3464;42.728;23.296;2023-04-25T00:14:57;94452.62;;;17.47;75.23
6851;BME280;3464;42.728;23.296;2023-04-25T00:17:24;94446.77;;;17.58;75.42
6851;BME280;3464;42.728;23.296;2023-04-25T00:19:51;94441.64;;;17.46;75.81
6851;BME280;3464;42.728;23.296;2023-04-25T00:22:18;94446.03;;;17.67;76.44
6851;BME280;3464;42.728;23.296;2023-04-25T00:24:45;94453.08;;;17.98;75.12
6851;BME280;3464;42.728;23.296;2023-04-25T00:27:11;94452.91;;;17.78;75.01
6851;BME280;3464;42.728;23.296;2023-04-25T00:29:38;94458.61;;;17.72;75.39
6851;BME280;3464;42.728;23.296;2023-04-25T00:32:04;94463.92;;;17.52;76.69
6851;BME280;3464;42.728;23.296;2023-04-25T00:34:31;94466.70;;;17.45;77.94
6851;BME280;3464;42.728;23.296;2023-04-25T00:36:58;94479.41;;;17.30;78.95
6851;BME280;3464;42.728;23.296;2023-04-25T00:39:25;94476.58;;;17.11;80.25
6851;BME280;3464;42.728;23.296;2023-04-25T00:41:51;94465.68;;;17.21;79.67
6851;BME280;3464;42.728;23.296;2023-04-25T00:44:18;94460.15;;;17.36;78.52
6851;BME280;3464;42.728;23.296;2023-04-25T00:46:44;94459.95;;;17.28;79.03
6851;BME280;3464;42.728;23.296;2023-04-25T00:49:11;94456.80;;;17.34;78.71
6851;BME280;3464;42.728;23.296;2023-04-25T00:51:37;94455.67;;;17.44;77.29
6851;BME280;3464;42.728;23.296;2023-04-25T00:54:04;94458.47;;;17.50;76.46
6851;BME280;3464;42.728;23.296;2023-04-25T00:56:30;94451.77;;;17.47;75.84
6851;BME280;3464;42.728;23.296;2023-04-25T00:58:57;94454.17;;;17.37;76.68
6851;BME280;3464;42.728;23.296;2023-04-25T01:01:24;94445.23;;;17.52;77.19
6851;BME280;3464;42.728;23.296;2023-04-25T01:03:50;94440.51;;;17.40;77.66
6851;BME280;3464;42.728;23.296;2023-04-25T01:06:17;94435.68;;;17.18;79.00
6851;BME280;3464;42.728;23.296;2023-04-25T01:08:44;94447.22;;;16.71;80.58
6851;BME280;3464;42.728;23.296;2023-04-25T01:11:12;94442.95;;;16.87;81.21
6851;BME280;3464;42.728;23.296;2023-04-25T01:13:39;94433.41;;;17.09;81.26
6851;BME280;3464;42.728;23.296;2023-04-25T01:16:06;94423.03;;;17.29;80.59
6851;BME280;3464;42.728;23.296;2023-04-25T01:18:33;94419.38;;;17.10;80.95
6851;BME280;3464;42.728;23.296;2023-04-25T01:21:10;94417.10;;;16.87;82.20
6851;BME280;3464;42.728;23.296;2023-04-25T01:23:40;94422.15;;;16.88;81.94
6851;BME280;3464;42.728;23.296;2023-04-25T01:26:08;94417.05;;;17.03;81.32
6851;BME280;3464;42.728;23.296;2023-04-25T01:28:33;94419.69;;;16.86;81.49
6851;BME280;3464;42.728;23.296;2023-04-25T01:31:01;94419.02;;;16.65;81.90
6851;BME280;3464;42.728;23.296;2023-04-25T01:33:27;94428.71;;;16.67;81.81
6851;BME280;3464;42.728;23.296;2023-04-25T01:35:54;94426.34;;;16.60;82.16
6851;BME280;3464;42.728;23.296;2023-04-25T01:38:20;94422.02;;;16.64;81.51
6851;BME280;3464;42.728;23.296;2023-04-25T01:40:47;94418.16;;;16.50;82.87
6851;BME280;3464;42.728;23.296;2023-04-25T01:43:13;94417.01;;;16.14;84.07
6851;BME280;3464;42.728;23.296;2023-04-25T01:45:40;94416.20;;;16.45;83.47
6851;BME280;3464;42.728;23.296;2023-04-25T01:48:10;94421.12;;;16.51;82.29
6851;BME280;3464;42.728;23.296;2023-04-25T01:50:37;94424.77;;;16.57;82.57
6851;BME280;3464;42.728;23.296;2023-04-25T01:53:04;94424.08;;;16.51;83.42
6851;BME280;3464;42.728;23.296;2023-04-25T01:55:30;94410.66;;;16.61;83.14
6851;BME280;3464;42.728;23.296;2023-04-25T01:57:57;94409.95;;;16.71;82.73
6851;BME280;3464;42.728;23.296;2023-04-25T02:00:23;94417.74;;;16.80;82.49
6851;BME280;3464;42.728;23.296;2023-04-25T02:02:50;94419.19;;;16.88;82.48
6851;BME280;3464;42.728;23.296;2023-04-25T02:05:17;94426.29;;;16.92;82.21
6851;BME280;3464;42.728;23.296;2023-04-25T02:07:44;94423.83;;;17.04;81.38
6851;BME280;3464;42.728;23.296;2023-04-25T02:10:10;94418.61;;;17.08;81.40
6851;BME280;3464;42.728;23.296;2023-04-25T02:12:38;94417.06;;;16.89;81.56
6851;BME280;3464;42.728;23.296;2023-04-25T02:15:06;94417.48;;;16.89;81.69
6851;BME280;3464;42.728;23.296;2023-04-25T02:17:32;94412.19;;;16.81;82.05
6851;BME280;3464;42.728;23.296;2023-04-25T02:20:00;94404.56;;;16.35;83.51
6851;BME280;3464;42.728;23.296;2023-04-25T02:22:27;94400.69;;;16.23;85.09
6851;BME280;3464;42.728;23.296;2023-04-25T02:24:54;94393.38;;;16.27;84.39
6851;BME280;3464;42.728;23.296;2023-04-25T02:27:20;94393.92;;;16.23;83.43
6851;BME280;3464;42.728;23.296;2023-04-25T02:29:47;94389.00;;;16.16;83.13
6851;BME280;3464;42.728;23.296;2023-04-25T02:32:13;94389.36;;;16.03;82.76
6851;BME280;3464;42.728;23.296;2023-04-25T02:34:40;94374.71;;;15.81;84.25
6851;BME280;3464;42.728;23.296;2023-04-25T02:37:06;94373.55;;;15.78;85.12
6851;BME280;3464;42.728;23.296;2023-04-25T02:39:33;94376.05;;;15.78;85.72
6851;BME280;3464;42.728;23.296;2023-04-25T02:41:59;94376.59;;;15.89;84.03
6851;BME280;3464;42.728;23.296;2023-04-25T02:44:26;94374.24;;;15.83;84.21
6851;BME280;3464;42.728;23.296;2023-04-25T02:46:52;94380.36;;;15.75;84.27
6851;BME280;3464;42.728;23.296;2023-04-25T02:49:19;94375.31;;;15.74;85.47
6851;BME280;3464;42.728;23.296;2023-04-25T02:51:45;94369.58;;;15.50;89.84
6851;BME280;3464;42.728;23.296;2023-04-25T02:54:12;94368.00;;;15.63;88.67
6851;BME280;3464;42.728;23.296;2023-04-25T02:56:39;94369.02;;;15.73;87.66
6851;BME280;3464;42.728;23.296;2023-04-25T02:59:06;94362.32;;;15.70;86.51
6851;BME280;3464;42.728;23.296;2023-04-25T03:01:32;94363.36;;;15.62;87.33
6851;BME280;3464;42.728;23.296;2023-04-25T03:03:59;94369.59;;;15.67;86.90
6851;BME280;3464;42.728;23.296;2023-04-25T03:06:25;94363.23;;;15.51;89.42
6851;BME280;3464;42.728;23.296;2023-04-25T03:08:52;94364.00;;;15.53;89.37
6851;BME280;3464;42.728;23.296;2023-04-25T03:11:19;94363.34;;;15.46;91.06
6851;BME280;3464;42.728;23.296;2023-04-25T03:13:46;94367.71;;;15.41;91.34
6851;BME280;3464;42.728;23.296;2023-04-25T03:16:13;94361.55;;;16.06;88.34
6851;BME280;3464;42.728;23.296;2023-04-25T03:18:40;94363.28;;;16.29;85.46
6851;BME280;3464;42.728;23.296;2023-04-25T03:21:09;94366.80;;;16.23;85.14
6851;BME280;3464;42.728;23.296;2023-04-25T03:23:37;94356.59;;;15.62;87.30
6851;BME280;3464;42.728;23.296;2023-04-25T03:26:04;94363.03;;;15.42;89.16
6851;BME280;3464;42.728;23.296;2023-04-25T03:28:31;94363.91;;;15.41;90.26
6851;BME280;3464;42.728;23.296;2023-04-25T03:30:58;94352.30;;;15.30;90.98
6851;BME280;3464;42.728;23.296;2023-04-25T03:33:25;94358.98;;;15.15;94.01
6851;BME280;3464;42.728;23.296;2023-04-25T03:35:53;94365.36;;;15.14;95.33
6851;BME280;3464;42.728;23.296;2023-04-25T03:38:19;94364.51;;;15.14;95.60
6851;BME280;3464;42.728;23.296;2023-04-25T03:40:46;94366.88;;;15.21;94.88
6851;BME280;3464;42.728;23.296;2023-04-25T03:43:13;94359.61;;;15.43;94.75
6851;BME280;3464;42.728;23.296;2023-04-25T03:45:40;94365.73;;;15.52;93.83
6851;BME280;3464;42.728;23.296;2023-04-25T03:48:06;94359.83;;;15.85;93.64
6851;BME280;3464;42.728;23.296;2023-04-25T03:50:33;94353.88;;;16.16;92.19
6851;BME280;3464;42.728;23.296;2023-04-25T03:53:00;94355.61;;;16.16;90.90
6851;BME280;3464;42.728;23.296;2023-04-25T03:55:26;94360.91;;;16.53;88.13
6851;BME280;3464;42.728;23.296;2023-04-25T03:57:53;94361.23;;;16.86;87.17
6851;BME280;3464;42.728;23.296;2023-04-25T04:00:20;94360.77;;;16.87;86.19
6851;BME280;3464;42.728;23.296;2023-04-25T04:02:48;94371.88;;;17.38;84.18
6851;BME280;3464;42.728;23.296;2023-04-25T04:05:15;94375.00;;;18.47;81.25
6851;BME280;3464;42.728;23.296;2023-04-25T04:07:41;94369.03;;;19.48;76.05
6851;BME280;3464;42.728;23.296;2023-04-25T04:10:09;94359.77;;;22.67;64.10
6851;BME280;3464;42.728;23.296;2023-04-25T04:12:36;94349.38;;;25.62;56.33
6851;BME280;3464;42.728;23.296;2023-04-25T04:15:04;94354.57;;;23.40;55.30
6851;BME280;3464;42.728;23.296;2023-04-25T04:17:31;94355.26;;;21.89;59.68
6851;BME280;3464;42.728;23.296;2023-04-25T04:19:58;94353.13;;;20.71;61.29
6851;BME280;3464;42.728;23.296;2023-04-25T04:22:25;94353.16;;;20.02;64.35
6851;BME280;3464;42.728;23.296;2023-04-25T04:24:52;94350.31;;;19.59;64.78
6851;BME280;3464;42.728;23.296;2023-04-25T04:27:19;94344.02;;;21.21;63.23
6851;BME280;3464;42.728;23.296;2023-04-25T04:29:45;94350.61;;;20.98;61.37
6851;BME280;3464;42.728;23.296;2023-04-25T04:32:12;94359.93;;;19.93;65.70
6851;BME280;3464;42.728;23.296;2023-04-25T04:34:38;94360.95;;;19.79;66.11
6851;BME280;3464;42.728;23.296;2023-04-25T04:37:05;94360.14;;;20.09;64.72
6851;BME280;3464;42.728;23.296;2023-04-25T04:39:32;94362.78;;;19.45;65.47
6851;BME280;3464;42.728;23.296;2023-04-25T04:41:58;94365.95;;;18.85;66.35
6851;BME280;3464;42.728;23.296;2023-04-25T04:44:25;94373.51;;;18.65;67.86
6851;BME280;3464;42.728;23.296;2023-04-25T04:46:52;94371.25;;;18.21;70.23
6851;BME280;3464;42.728;23.296;2023-04-25T04:49:18;94375.23;;;18.28;70.95
6851;BME280;3464;42.728;23.296;2023-04-25T04:51:45;94374.95;;;18.12;71.48
6851;BME280;3464;42.728;23.296;2023-04-25T04:54:12;94376.34;;;18.33;71.57
6851;BME280;3464;42.728;23.296;2023-04-25T04:56:38;94368.97;;;19.39;68.13
6851;BME280;3464;42.728;23.296;2023-04-25T04:59:05;94381.17;;;18.40;70.54
6851;BME280;3464;42.728;23.296;2023-04-25T05:01:32;94377.61;;;18.46;71.74
6851;BME280;3464;42.728;23.296;2023-04-25T05:03:59;94381.59;;;18.53;70.73
6851;BME280;3464;42.728;23.296;2023-04-25T05:06:26;94393.03;;;18.88;71.10
6851;BME280;3464;42.728;23.296;2023-04-25T05:08:52;94391.59;;;19.27;69.88
6851;BME280;3464;42.728;23.296;2023-04-25T05:11:19;94395.47;;;18.91;70.52
6851;BME280;3464;42.728;23.296;2023-04-25T05:13:45;94393.27;;;19.38;69.45
6851;BME280;3464;42.728;23.296;2023-04-25T05:16:13;94395.86;;;19.26;69.36
6851;BME280;3464;42.728;23.296;2023-04-25T05:18:39;94402.34;;;19.45;68.16
6851;BME280;3464;42.728;23.296;2023-04-25T05:21:06;94392.17;;;19.85;67.71
6851;BME280;3464;42.728;23.296;2023-04-25T05:23:32;94387.23;;;20.02;66.18
6851;BME280;3464;42.728;23.296;2023-04-25T05:25:59;94391.67;;;19.67;67.42
6851;BME280;3464;42.728;23.296;2023-04-25T05:28:28;94395.45;;;19.37;68.57
6851;BME280;3464;42.728;23.296;2023-04-25T05:30:55;94383.09;;;19.78;66.54
6851;BME280;3464;42.728;23.296;2023-04-25T05:33:22;94384.67;;;19.72;64.50
6851;BME280;3464;42.728;23.296;2023-04-25T05:35:49;94380.41;;;19.07;66.48
6851;BME280;3464;42.728;23.296;2023-04-25T05:38:15;94381.78;;;19.05;65.56
6851;BME280;3464;42.728;23.296;2023-04-25T05:40:43;94374.94;;;19.90;64.32
6851;BME280;3464;42.728;23.296;2023-04-25T05:43:09;94372.95;;;20.38;62.96
6851;BME280;3464;42.728;23.296;2023-04-25T05:45:35;94374.81;;;20.72;61.36
6851;BME280;3464;42.728;23.296;2023-04-25T05:48:02;94376.39;;;20.47;61.89
6851;BME280;3464;42.728;23.296;2023-04-25T05:50:28;94378.45;;;20.29;62.94
6851;BME280;3464;42.728;23.296;2023-04-25T05:52:55;94371.58;;;20.87;61.31
6851;BME280;3464;42.728;23.296;2023-04-25T05:55:22;94374.08;;;20.70;61.64
6851;BME280;3464;42.728;23.296;2023-04-25T05:57:49;94381.78;;;20.79;61.27
6851;BME280;3464;42.728;23.296;2023-04-25T06:00:16;94385.03;;;20.54;61.90
6851;BME280;3464;42.728;23.296;2023-04-25T06:02:43;94380.70;;;20.93;60.91
6851;BME280;3464;42.728;23.296;2023-04-25T06:05:09;94378.73;;;20.99;60.58
6851;BME280;3464;42.728;23.296;2023-04-25T06:07:36;94370.11;;;21.10;59.40
6851;BME280;3464;42.728;23.296;2023-04-25T06:10:03;94377.82;;;21.37;59.56
6851;BME280;3464;42.728;23.296;2023-04-25T06:12:30;94372.23;;;21.82;58.54
6851;BME280;3464;42.728;23.296;2023-04-25T06:14:57;94373.97;;;21.46;59.07
6851;BME280;3464;42.728;23.296;2023-04-25T06:17:25;94371.39;;;21.99;58.42
6851;BME280;3464;42.728;23.296;2023-04-25T06:19:52;94376.02;;;21.39;58.57
6851;BME280;3464;42.728;23.296;2023-04-25T06:22:18;94379.88;;;21.29;58.83
6851;BME280;3464;42.728;23.296;2023-04-25T06:24:45;94385.61;;;21.26;58.92
6851;BME280;3464;42.728;23.296;2023-04-25T06:27:12;94386.55;;;21.23;58.80
6851;BME280;3464;42.728;23.296;2023-04-25T06:29:39;94388.88;;;21.73;58.32
6851;BME280;3464;42.728;23.296;2023-04-25T06:32:07;94394.13;;;21.97;57.59
6851;BME280;3464;42.728;23.296;2023-04-25T06:34:34;94384.31;;;22.88;55.63
6851;BME280;3464;42.728;23.296;2023-04-25T06:37:00;94373.91;;;24.71;51.34
6851;BME280;3464;42.728;23.296;2023-04-25T06:39:27;94382.17;;;25.66;50.45
6851;BME280;3464;42.728;23.296;2023-04-25T06:41:53;94383.97;;;27.06;46.30
6851;BME280;3464;42.728;23.296;2023-04-25T06:44:20;94383.02;;;27.98;43.77
6851;BME280;3464;42.728;23.296;2023-04-25T06:46:46;94383.20;;;28.30;43.60
6851;BME280;3464;42.728;23.296;2023-04-25T06:49:13;94380.75;;;27.63;44.03
6851;BME280;3464;42.728;23.296;2023-04-25T06:51:40;94376.81;;;27.94;43.52
6851;BME280;3464;42.728;23.296;2023-04-25T06:54:06;94384.47;;;26.74;44.88
6851;BME280;3464;42.728;23.296;2023-04-25T06:56:33;94386.18;;;26.04;46.30
6851;BME280;3464;42.728;23.296;2023-04-25T06:58:59;94385.88;;;26.40;46.11
6851;BME280;3464;42.728;23.296;2023-04-25T07:01:26;94385.20;;;26.25;45.75
6851;BME280;3464;42.728;23.296;2023-04-25T07:03:52;94380.10;;;25.44;46.43
6851;BME280;3464;42.728;23.296;2023-04-25T07:06:19;94378.86;;;25.09;47.38
6851;BME280;3464;42.728;23.296;2023-04-25T07:08:46;94383.58;;;24.96;47.39
6851;BME280;3464;42.728;23.296;2023-04-25T07:11:12;94382.53;;;24.13;49.20
6851;BME280;3464;42.728;23.296;2023-04-25T07:13:39;94389.38;;;23.37;50.10
6851;BME280;3464;42.728;23.296;2023-04-25T07:16:06;94391.75;;;23.09;51.60
6851;BME280;3464;42.728;23.296;2023-04-25T07:18:35;94397.81;;;22.51;52.97
6851;BME280;3464;42.728;23.296;2023-04-25T07:21:01;94394.28;;;21.94;54.54
6851;BME280;3464;42.728;23.296;2023-04-25T07:23:28;94385.84;;;21.65;55.10
6851;BME280;3464;42.728;23.296;2023-04-25T07:25:55;94386.09;;;22.29;53.21
6851;BME280;3464;42.728;23.296;2023-04-25T07:28:21;94385.48;;;21.91;53.92
6851;BME280;3464;42.728;23.296;2023-04-25T07:30:48;94382.42;;;22.09;54.58
6851;BME280;3464;42.728;23.296;2023-04-25T07:33:15;94384.15;;;22.91;52.69
6851;BME280;3464;42.728;23.296;2023-04-25T07:35:41;94379.14;;;23.13;51.75
6851;BME280;3464;42.728;23.296;2023-04-25T07:38:08;94379.57;;;22.81;52.56
6851;BME280;3464;42.728;23.296;2023-04-25T07:40:34;94371.50;;;23.20;52.17
6851;BME280;3464;42.728;23.296;2023-04-25T07:43:01;94371.48;;;23.28;51.19
6851;BME280;3464;42.728;23.296;2023-04-25T07:45:27;94368.20;;;23.49;51.03
6851;BME280;3464;42.728;23.296;2023-04-25T07:47:54;94371.77;;;23.31;51.62
6851;BME280;3464;42.728;23.296;2023-04-25T07:50:20;94372.81;;;23.19;51.07
6851;BME280;3464;42.728;23.296;2023-04-25T07:52:47;94373.50;;;23.91;50.39
6851;BME280;3464;42.728;23.296;2023-04-25T07:55:13;94369.02;;;24.60;49.55
6851;BME280;3464;42.728;23.296;2023-04-25T07:57:40;94363.20;;;26.38;46.29
6851;BME280;3464;42.728;23.296;2023-04-25T08:00:07;94361.21;;;26.93;44.60
6851;BME280;3464;42.728;23.296;2023-04-25T08:02:35;94349.62;;;27.47;42.38
6851;BME280;3464;42.728;23.296;2023-04-25T08:05:01;94352.51;;;27.55;42.11
6851;BME280;3464;42.728;23.296;2023-04-25T08:07:28;94351.09;;;27.26;41.92
6851;BME280;3464;42.728;23.296;2023-04-25T08:09:55;94354.00;;;26.60;44.05
6851;BME280;3464;42.728;23.296;2023-04-25T08:12:22;94349.05;;;27.55;41.78
6851;BME280;3464;42.728;23.296;2023-04-25T08:14:48;94347.66;;;27.62;41.84
6851;BME280;3464;42.728;23.296;2023-04-25T08:17:15;94346.02;;;26.64;43.45
6851;BME280;3464;42.728;23.296;2023-04-25T08:19:42;94342.17;;;26.06;44.18
6851;BME280;3464;42.728;23.296;2023-04-25T08:22:10;94340.44;;;25.27;45.28
6851;BME280;3464;42.728;23.296;2023-04-25T08:24:36;94344.74;;;24.64;46.06
6851;BME280;3464;42.728;23.296;2023-04-25T08:27:03;94356.22;;;23.56;49.36
6851;BME280;3464;42.728;23.296;2023-04-25T08:29:29;94369.08;;;22.53;52.92
6851;BME280;3464;42.728;23.296;2023-04-25T08:31:56;94375.13;;;22.43;53.63
6851;BME280;3464;42.728;23.296;2023-04-25T08:34:22;94377.69;;;22.26;54.46
6851;BME280;3464;42.728;23.296;2023-04-25T08:36:49;94378.99;;;22.43;55.43
6851;BME280;3464;42.728;23.296;2023-04-25T08:39:15;94381.53;;;22.43;55.04
6851;BME280;3464;42.728;23.296;2023-04-25T08:41:42;94388.88;;;21.82;59.24
6851;BME280;3464;42.728;23.296;2023-04-25T08:44:10;94381.03;;;21.77;59.39
6851;BME280;3464;42.728;23.296;2023-04-25T08:46:38;94368.77;;;22.28;59.25
6851;BME280;3464;42.728;23.296;2023-04-25T08:49:04;94367.91;;;22.26;57.98
6851;BME280;3464;42.728;23.296;2023-04-25T08:51:31;94358.04;;;22.26;56.02
6851;BME280;3464;42.728;23.296;2023-04-25T08:53:59;94359.23;;;21.51;56.43
6851;BME280;3464;42.728;23.296;2023-04-25T08:56:25;94349.29;;;21.70;57.93
6851;BME280;3464;42.728;23.296;2023-04-25T08:58:51;94350.42;;;22.17;56.02
6851;BME280;3464;42.728;23.296;2023-04-25T09:01:18;94350.00;;;22.17;57.18
6851;BME280;3464;42.728;23.296;2023-04-25T09:03:44;94347.46;;;22.49;56.89
6851;BME280;3464;42.728;23.296;2023-04-25T09:06:11;94341.84;;;22.59;55.60
6851;BME280;3464;42.728;23.296;2023-04-25T09:08:37;94334.75;;;23.27;54.71
6851;BME280;3464;42.728;23.296;2023-04-25T09:11:04;94333.29;;;22.75;55.62
6851;BME280;3464;42.728;23.296;2023-04-25T09:13:30;94324.95;;;23.49;54.29
6851;BME280;3464;42.728;23.296;2023-04-25T09:15:57;94320.17;;;23.19;53.31
6851;BME280;3464;42.728;23.296;2023-04-25T09:18:28;94319.73;;;23.12;52.78
6851;BME280;3464;42.728;23.296;2023-04-25T09:20:55;94312.31;;;23.89;52.97
6851;BME280;3464;42.728;23.296;2023-04-25T09:23:21;94312.67;;;23.90;52.42
6851;BME280;3464;42.728;23.296;2023-04-25T09:25:49;94306.71;;;24.34;50.40
6851;BME280;3464;42.728;23.296;2023-04-25T09:28:17;94301.20;;;24.82;49.84
6851;BME280;3464;42.728;23.296;2023-04-25T09:30:43;94302.89;;;26.21;45.90
6851;BME280;3464;42.728;23.296;2023-04-25T09:33:10;94308.71;;;25.66;47.06
6851;BME280;3464;42.728;23.296;2023-04-25T09:35:38;94310.99;;;25.70;47.27
6851;BME280;3464;42.728;23.296;2023-04-25T09:38:09;94329.25;;;23.86;49.75
6851;BME280;3464;42.728;23.296;2023-04-25T09:40:38;94330.78;;;22.17;53.15
6851;BME280;3464;42.728;23.296;2023-04-25T09:43:01;94329.87;;;21.76;54.70
6851;BME280;3464;42.728;23.296;2023-04-25T09:45:29;94332.83;;;21.93;53.83
6851;BME280;3464;42.728;23.296;2023-04-25T09:47:55;94327.64;;;21.86;52.29
6851;BME280;3464;42.728;23.296;2023-04-25T09:50:23;94328.92;;;22.19;51.59
6851;BME280;3464;42.728;23.296;2023-04-25T09:53:02;94325.59;;;21.92;51.73
6851;BME280;3464;42.728;23.296;2023-04-25T09:55:17;94316.89;;;22.21;51.93
6851;BME280;3464;42.728;23.296;2023-04-25T09:57:48;94315.20;;;22.29;51.00
6851;BME280;3464;42.728;23.296;2023-04-25T10:00:16;94320.42;;;22.51;50.39
6851;BME280;3464;42.728;23.296;2023-04-25T10:02:44;94314.43;;;23.30;49.01
6851;BME280;3464;42.728;23.296;2023-04-25T10:05:10;94317.36;;;24.42;47.66
6851;BME280;3464;42.728;23.296;2023-04-25T10:07:37;94317.83;;;24.05;47.07
6851;BME280;3464;42.728;23.296;2023-04-25T10:10:04;94308.89;;;24.68;45.20
6851;BME280;3464;42.728;23.296;2023-04-25T10:12:31;94311.77;;;23.91;46.20
6851;BME280;3464;42.728;23.296;2023-04-25T10:14:57;94300.31;;;24.61;45.05
6851;BME280;3464;42.728;23.296;2023-04-25T10:17:25;94307.91;;;24.35;44.72
6851;BME280;3464;42.728;23.296;2023-04-25T10:19:51;94313.97;;;22.99;47.95
6851;BME280;3464;42.728;23.296;2023-04-25T10:22:29;94313.62;;;22.59;49.16
6851;BME280;3464;42.728;23.296;2023-04-25T10:24:49;94314.00;;;23.14;50.07
6851;BME280;3464;42.728;23.296;2023-04-25T10:27:16;94330.05;;;23.57;48.49
6851;BME280;3464;42.728;23.296;2023-04-25T10:29:43;94328.23;;;22.16;47.92
6851;BME280;3464;42.728;23.296;2023-04-25T10:32:09;94330.73;;;21.40;49.26
6851;BME280;3464;42.728;23.296;2023-04-25T10:34:40;94337.20;;;21.30;50.26
6851;BME280;3464;42.728;23.296;2023-04-25T10:37:05;94329.09;;;20.84;51.19
6851;BME280;3464;42.728;23.296;2023-04-25T10:39:32;94325.66;;;21.04;52.36
6851;BME280;3464;42.728;23.296;2023-04-25T10:41:58;94328.86;;;20.89;53.71
6851;BME280;3464;42.728;23.296;2023-04-25T10:44:27;94326.67;;;21.18;53.87
6851;BME280;3464;42.728;23.296;2023-04-25T10:46:54;94322.33;;;21.55;53.23
6851;BME280;3464;42.728;23.296;2023-04-25T10:49:35;94317.52;;;22.25;52.80
6851;BME280;3464;42.728;23.296;2023-04-25T10:52:15;94307.32;;;23.72;49.89
6851;BME280;3464;42.728;23.296;2023-04-25T10:54:45;94312.20;;;22.12;51.93
6851;BME280;3464;42.728;23.296;2023-04-25T10:57:25;94312.31;;;22.43;51.60
6851;BME280;3464;42.728;23.296;2023-04-25T10:59:36;94316.79;;;21.98;53.30
6851;BME280;3464;42.728;23.296;2023-04-25T11:02:11;94321.30;;;21.93;53.54
6851;BME280;3464;42.728;23.296;2023-04-25T11:04:32;94310.78;;;21.90;54.02
6851;BME280;3464;42.728;23.296;2023-04-25T11:07:23;94309.25;;;21.60;54.71
6851;BME280;3464;42.728;23.296;2023-04-25T11:09:48;94308.42;;;21.86;52.53
6851;BME280;3464;42.728;23.296;2023-04-25T11:12:15;94301.54;;;21.00;53.85
6851;BME280;3464;42.728;23.296;2023-04-25T11:14:42;94296.82;;;22.12;53.08
6851;BME280;3464;42.728;23.296;2023-04-25T11:17:08;94301.77;;;21.39;51.42
6851;BME280;3464;42.728;23.296;2023-04-25T11:19:36;94296.73;;;21.98;50.69
6851;BME280;3464;42.728;23.296;2023-04-25T11:22:03;94290.55;;;21.06;50.18
6851;BME280;3464;42.728;23.296;2023-04-25T11:24:34;94290.84;;;21.09;49.09
6851;BME280;3464;42.728;23.296;2023-04-25T11:27:01;94293.34;;;21.10;48.51
6851;BME280;3464;42.728;23.296;2023-04-25T11:29:30;94283.44;;;20.94;47.89
6851;BME280;3464;42.728;23.296;2023-04-25T11:31:57;94290.92;;;21.07;48.07
6851;BME280;3464;42.728;23.296;2023-04-25T11:34:24;94286.00;;;21.73;47.62
6851;BME280;3464;42.728;23.296;2023-04-25T11:36:51;94279.66;;;22.55;46.91
6851;BME280;3464;42.728;23.296;2023-04-25T11:39:17;94276.30;;;23.39;46.67
6851;BME280;3464;42.728;23.296;2023-04-25T11:41:44;94276.70;;;23.76;46.27
6851;BME280;3464;42.728;23.296;2023-04-25T11:44:11;94280.63;;;23.97;46.15
6851;BME280;3464;42.728;23.296;2023-04-25T11:46:38;94274.50;;;24.27;46.20
6851;BME280;3464;42.728;23.296;2023-04-25T11:49:04;94277.34;;;23.65;46.18
6851;BME280;3464;42.728;23.296;2023-04-25T11:51:37;94282.53;;;23.19;45.41
6851;BME280;3464;42.728;23.296;2023-04-25T11:53:57;94283.72;;;22.66;45.62
6851;BME280;3464;42.728;23.296;2023-04-25T11:56:24;94275.44;;;22.69;45.41
6851;BME280;3464;42.728;23.296;2023-04-25T11:58:59;94276.72;;;22.54;45.56
6851;BME280;3464;42.728;23.296;2023-04-25T12:01:30;94265.81;;;23.71;44.26
6851;BME280;3464;42.728;23.296;2023-04-25T12:03:56;94256.36;;;24.16;43.23
6851;BME280;3464;42.728;23.296;2023-04-25T12:06:28;94247.54;;;24.13;43.12
6851;BME280;3464;42.728;23.296;2023-04-25T12:09:00;94245.21;;;24.90;41.50
6851;BME280;3464;42.728;23.296;2023-04-25T12:11:25;94259.52;;;25.43;40.62
6851;BME280;3464;42.728;23.296;2023-04-25T12:13:52;94269.35;;;25.57;39.63
6851;BME280;3464;42.728;23.296;2023-04-25T12:16:18;94261.66;;;26.14;39.55
6851;BME280;3464;42.728;23.296;2023-04-25T12:18:45;94259.81;;;25.58;39.99
6851;BME280;3464;42.728;23.296;2023-04-25T12:21:13;94272.66;;;25.85;39.15
6851;BME280;3464;42.728;23.296;2023-04-25T12:23:40;94307.20;;;24.53;41.09
6851;BME280;3464;42.728;23.296;2023-04-25T12:26:09;94319.93;;;22.03;46.72
6851;BME280;3464;42.728;23.296;2023-04-25T12:28:35;94333.52;;;21.44;53.69
6851;BME280;3464;42.728;23.296;2023-04-25T12:31:04;94338.45;;;20.38;61.88
6851;BME280;3464;42.728;23.296;2023-04-25T12:33:32;94341.77;;;18.49;61.16
6851;BME280;3464;42.728;23.296;2023-04-25T12:35:58;94341.64;;;18.17;62.05
6851;BME280;3464;42.728;23.296;2023-04-25T12:38:25;94336.66;;;19.49;59.30
6851;BME280;3464;42.728;23.296;2023-04-25T12:40:51;94332.13;;;19.35;58.66
6851;BME280;3464;42.728;23.296;2023-04-25T12:43:17;94328.17;;;20.67;57.49
6851;BME280;3464;42.728;23.296;2023-04-25T12:45:48;94332.55;;;21.98;54.28
6851;BME280;3464;42.728;23.296;2023-04-25T12:48:14;94322.96;;;23.07;52.23
6851;BME280;3464;42.728;23.296;2023-04-25T12:50:41;94329.34;;;23.84;51.51
6851;BME280;3464;42.728;23.296;2023-04-25T12:53:09;94325.73;;;24.09;51.18
6851;BME280;3464;42.728;23.296;2023-04-25T12:55:35;94320.58;;;24.09;50.51
6851;BME280;3464;42.728;23.296;2023-04-25T12:58:02;94328.69;;;24.31;50.71
6851;BME280;3464;42.728;23.296;2023-04-25T13:00:30;94327.52;;;24.01;51.44
6851;BME280;3464;42.728;23.296;2023-04-25T13:02:56;94333.61;;;23.99;50.01
6851;BME280;3464;42.728;23.296;2023-04-25T13:05:22;94330.34;;;23.29;50.64
6851;BME280;3464;42.728;23.296;2023-04-25T13:07:49;94337.48;;;23.00;52.03